Time;durP1;ratioP1;P1;durP2;ratioP2;P2;SDS_P1;SDS_P2;PMS_P1;PMS_P2;Temp;Humidity;BMP_temperature;BMP_pressure;BME280_temperature;BME280_humidity;BME280_pressure;Samples;Min_cycle;Max_cycle;Signal;HPM_P1;HPM_P2
2021/09/01 00:01:36;;;;;;;3.90;2.17;;;16.30;70.90;;;;;;2341691;53;21505;-71
2021/09/01 00:04:05;;;;;;;4.70;2.40;;;16.30;70.90;;;;;;2359536;52;20993;-70
2021/09/01 00:06:31;;;;;;;5.95;2.65;;;16.30;71.00;;;;;;2608644;52;20954;-70
2021/09/01 00:08:57;;;;;;;3.78;2.33;;;16.30;71.00;;;;;;2598482;52;21044;-68
2021/09/01 00:11:23;;;;;;;4.25;2.17;;;16.20;70.90;;;;;;2345662;53;21030;-69
2021/09/01 00:13:50;;;;;;;4.25;2.53;;;16.20;70.90;;;;;;2358034;53;21143;-69
2021/09/01 00:16:28;;;;;;;4.40;2.60;;;16.20;70.90;;;;;;2356952;53;20929;-68
2021/09/01 00:18:59;;;;;;;4.10;2.42;;;16.20;70.90;;;;;;2367182;52;22053;-70
2021/09/01 00:21:25;;;;;;;3.20;1.95;;;16.10;70.80;;;;;;2351196;53;21903;-69
2021/09/01 00:23:51;;;;;;;3.87;2.33;;;16.10;70.90;;;;;;2557080;52;21061;-68
2021/09/01 00:26:21;;;;;;;4.65;2.28;;;16.10;70.90;;;;;;2342473;53;20987;-69
2021/09/01 00:28:47;;;;;;;4.40;2.35;;;16.00;70.80;;;;;;2602574;52;20931;-70
2021/09/01 00:31:14;;;;;;;4.28;2.40;;;16.00;70.90;;;;;;2357159;53;21100;-69
2021/09/01 00:33:40;;;;;;;4.30;2.45;;;16.00;71.00;;;;;;2608242;52;20981;-68
2021/09/01 00:36:08;;;;;;;4.50;2.28;;;15.90;70.90;;;;;;2357554;53;20942;-72
2021/09/01 00:38:34;;;;;;;3.95;2.25;;;15.90;71.00;;;;;;2362415;52;21023;-69
2021/09/01 00:41:00;;;;;;;4.57;2.17;;;15.90;71.00;;;;;;2386210;52;20921;-69
2021/09/01 00:43:27;;;;;;;4.40;2.65;;;15.80;70.90;;;;;;2357568;53;20957;-69
2021/09/01 00:45:53;;;;;;;3.83;2.15;;;15.80;71.00;;;;;;2357407;53;21423;-70
2021/09/01 00:48:20;;;;;;;3.45;2.17;;;15.80;71.00;;;;;;2357780;53;20933;-69
2021/09/01 00:50:49;;;;;;;3.92;2.50;;;15.80;71.10;;;;;;2609240;52;21312;-69
2021/09/01 00:53:16;;;;;;;3.97;2.40;;;15.80;71.10;;;;;;2346355;53;20934;-68
2021/09/01 00:55:44;;;;;;;3.85;2.10;;;15.70;71.00;;;;;;2360947;53;21109;-70
2021/09/01 00:58:17;;;;;;;4.82;2.58;;;15.70;71.10;;;;;;2362877;52;20961;-70
2021/09/01 01:06:42;;;;;;;3.70;1.90;;;15.70;71.20;;;;;;2361086;53;20958;-70
2021/09/01 01:09:09;;;;;;;4.28;2.45;;;15.60;71.10;;;;;;2379304;52;20982;-70
2021/09/01 01:12:11;;;;;;;4.15;2.45;;;15.60;71.20;;;;;;2362437;53;21807;-70
2021/09/01 01:14:42;;;;;;;5.72;2.78;;;15.60;71.10;;;;;;2480994;52;21053;-70
2021/09/01 01:17:12;;;;;;;4.75;2.65;;;15.60;71.90;;;;;;2354262;53;20950;-70
2021/09/01 01:19:39;;;;;;;5.55;2.67;;;15.50;71.20;;;;;;2357467;53;21596;-70
2021/09/01 01:22:06;;;;;;;4.53;2.95;;;15.50;71.30;;;;;;2358012;53;20985;-71
2021/09/01 01:24:52;;;;;;;6.53;2.90;;;15.50;71.30;;;;;;2357514;53;20957;-69
2021/09/01 01:27:41;;;;;;;5.28;2.92;;;15.50;70.90;;;;;;2357260;52;21945;-71
2021/09/01 01:30:16;;;;;;;4.00;2.50;;;15.50;70.90;;;;;;2380679;52;21060;-71
2021/09/01 01:32:44;;;;;;;5.10;2.90;;;15.40;71.40;;;;;;2357281;53;20949;-69
2021/09/01 01:35:11;;;;;;;4.35;2.80;;;15.40;71.20;;;;;;2436393;52;20929;-68
2021/09/01 01:37:39;;;;;;;4.07;2.42;;;15.40;71.30;;;;;;2441838;52;20954;-69
2021/09/01 01:40:07;;;;;;;3.92;2.58;;;15.30;71.20;;;;;;2337450;53;20953;-69
2021/09/01 01:42:40;;;;;;;5.40;2.72;;;15.30;71.20;;;;;;2396421;52;20949;-67
2021/09/01 01:45:08;;;;;;;4.25;2.50;;;15.30;71.00;;;;;;2439703;52;20949;-69
2021/09/01 01:47:34;;;;;;;3.97;2.30;;;15.30;71.30;;;;;;2356981;53;20961;-72
2021/09/01 01:50:01;;;;;;;4.60;2.75;;;15.30;71.30;;;;;;2552974;52;20949;-70
2021/09/01 01:52:30;;;;;;;5.47;2.78;;;15.20;71.30;;;;;;2363453;52;20963;-72
2021/09/01 01:54:56;;;;;;;5.62;2.53;;;15.20;71.40;;;;;;2336442;53;21165;-69
2021/09/01 01:57:23;;;;;;;5.90;2.67;;;15.20;71.50;;;;;;2359986;52;21201;-75
2021/09/01 01:59:49;;;;;;;4.75;2.92;;;15.20;71.60;;;;;;2365958;52;20991;-72
2021/09/01 02:02:18;;;;;;;4.18;2.42;;;15.20;71.50;;;;;;2591497;52;21021;-70
2021/09/01 02:04:45;;;;;;;4.15;2.37;;;15.20;71.50;;;;;;2598485;52;20941;-69
2021/09/01 02:07:12;;;;;;;4.47;3.03;;;15.10;71.50;;;;;;2488245;52;21005;-67
2021/09/01 02:09:38;;;;;;;6.62;2.90;;;15.10;71.40;;;;;;2361295;53;21630;-71
2021/09/01 02:12:05;;;;;;;4.20;2.08;;;15.10;71.40;;;;;;2356689;52;20926;-69
2021/09/01 02:14:34;;;;;;;4.62;2.55;;;15.10;71.40;;;;;;2608352;52;21037;-71
2021/09/01 02:17:04;;;;;;;4.78;2.65;;;15.10;71.40;;;;;;2394914;52;21014;-68
2021/09/01 02:19:30;;;;;;;3.90;2.42;;;15.10;71.50;;;;;;2588816;52;20993;-69
2021/09/01 02:21:57;;;;;;;4.60;2.70;;;15.10;71.50;;;;;;2363562;53;21068;-74
2021/09/01 02:24:23;;;;;;;4.78;2.45;;;15.00;71.40;;;;;;2406236;53;20994;-70
2021/09/01 02:26:51;;;;;;;5.80;2.60;;;15.00;71.30;;;;;;2357132;53;21994;-73
2021/09/01 02:29:17;;;;;;;4.45;2.40;;;15.00;71.20;;;;;;2362404;52;21475;-70
2021/09/01 02:31:44;;;;;;;5.60;3.30;;;15.00;71.20;;;;;;2357350;53;20937;-72
2021/09/01 02:34:12;;;;;;;4.47;2.92;;;14.90;71.10;;;;;;2357751;53;21032;-70
2021/09/01 02:36:38;;;;;;;4.05;2.53;;;14.90;71.20;;;;;;2362145;52;21508;-71
2021/09/01 02:39:04;;;;;;;5.05;3.00;;;14.90;71.30;;;;;;2357685;52;20965;-70
2021/09/01 02:41:31;;;;;;;6.12;3.60;;;14.90;71.30;;;;;;2361833;52;21915;-71
2021/09/01 02:44:00;;;;;;;4.82;3.08;;;14.80;71.30;;;;;;2422803;52;20946;-74
2021/09/01 02:46:26;;;;;;;5.47;2.92;;;14.80;71.30;;;;;;2362410;52;21118;-72
2021/09/01 02:48:53;;;;;;;4.87;3.33;;;14.80;71.50;;;;;;2349601;53;20972;-73
2021/09/01 02:51:19;;;;;;;5.68;3.03;;;14.80;71.50;;;;;;2365536;52;20954;-68
2021/09/01 02:53:46;;;;;;;4.93;3.22;;;14.80;71.50;;;;;;2346175;53;20957;-71
2021/09/01 02:56:12;;;;;;;4.45;2.72;;;14.80;71.60;;;;;;2362186;53;20917;-71
2021/09/01 02:58:39;;;;;;;5.05;3.12;;;14.80;71.80;;;;;;2355743;53;21037;-74
2021/09/01 03:01:06;;;;;;;4.60;2.85;;;14.80;71.80;;;;;;2356116;53;21027;-71
2021/09/01 03:03:33;;;;;;;4.47;2.80;;;14.80;71.80;;;;;;2558071;52;20943;-69
2021/09/01 03:05:59;;;;;;;4.15;2.60;;;14.80;71.80;;;;;;2353118;53;20950;-72
2021/09/01 03:08:25;;;;;;;4.65;2.90;;;14.70;71.80;;;;;;2359814;53;20976;-73
2021/09/01 03:10:52;;;;;;;5.65;3.15;;;14.70;71.80;;;;;;2345602;53;21366;-72
2021/09/01 03:13:18;;;;;;;5.35;2.53;;;14.70;71.70;;;;;;2358966;53;21051;-72
2021/09/01 03:15:44;;;;;;;4.70;2.85;;;14.70;71.70;;;;;;2357128;53;21349;-71
2021/09/01 03:18:11;;;;;;;5.43;3.00;;;14.70;71.70;;;;;;2356890;52;22063;-68
2021/09/01 03:20:37;;;;;;;4.90;3.12;;;14.70;71.70;;;;;;2361661;52;22070;-70
2021/09/01 03:23:03;;;;;;;4.78;2.80;;;14.70;71.80;;;;;;2462099;52;21313;-68
2021/09/01 03:25:30;;;;;;;4.55;2.85;;;14.70;71.80;;;;;;2361492;53;21356;-67
2021/09/01 03:27:59;;;;;;;4.90;3.12;;;14.70;72.40;;;;;;2356838;53;21957;-69
2021/09/01 03:30:28;;;;;;;4.93;3.33;;;14.70;71.70;;;;;;2370073;53;21043;-70
2021/09/01 03:32:54;;;;;;;5.47;3.22;;;14.70;71.50;;;;;;2356229;53;20984;-69
2021/09/01 03:35:23;;;;;;;3.78;2.45;;;14.70;71.50;;;;;;2607551;52;20926;-68
2021/09/01 03:37:50;;;;;;;6.72;3.03;;;14.60;71.30;;;;;;2368106;52;21018;-68
2021/09/01 03:40:16;;;;;;;4.50;3.03;;;14.60;71.40;;;;;;2351296;53;20952;-68
2021/09/01 03:42:43;;;;;;;5.43;3.15;;;14.60;71.50;;;;;;2356978;53;20934;-68
2021/09/01 03:45:09;;;;;;;4.03;2.70;;;14.60;72.30;;;;;;2364497;52;20953;-69
2021/09/01 03:47:37;;;;;;;4.90;3.05;;;14.50;71.60;;;;;;2357640;53;21021;-69
2021/09/01 03:50:07;;;;;;;5.00;3.08;;;14.50;71.60;;;;;;2580345;52;21952;-69
2021/09/01 03:52:33;;;;;;;4.90;2.75;;;14.50;71.70;;;;;;2348001;53;20961;-68
2021/09/01 03:55:01;;;;;;;6.22;3.05;;;14.50;71.80;;;;;;2356850;53;20989;-70
2021/09/01 03:57:28;;;;;;;4.50;2.80;;;14.50;71.90;;;;;;2551115;52;20987;-68
2021/09/01 03:59:54;;;;;;;6.22;3.40;;;14.50;72.00;;;;;;2345229;53;20918;-69
2021/09/01 04:02:21;;;;;;;4.97;3.30;;;14.50;72.20;;;;;;2362383;52;20962;-68
2021/09/01 04:04:49;;;;;;;6.37;3.22;;;14.50;72.50;;;;;;2380159;53;21182;-68
2021/09/01 04:07:15;;;;;;;6.78;3.33;;;14.50;72.60;;;;;;2352153;53;20952;-69
2021/09/01 04:09:45;;;;;;;4.90;3.30;;;14.50;72.60;;;;;;2521109;52;21918;-69
2021/09/01 04:12:11;;;;;;;4.85;3.08;;;14.50;72.70;;;;;;2367045;52;21030;-70
2021/09/01 04:14:37;;;;;;;4.72;3.00;;;14.50;72.60;;;;;;2351302;53;20978;-70
2021/09/01 04:17:04;;;;;;;4.15;2.47;;;14.50;72.70;;;;;;2363184;53;21521;-68
2021/09/01 04:19:32;;;;;;;4.62;2.90;;;14.50;72.70;;;;;;2347346;53;21029;-70
2021/09/01 04:21:58;;;;;;;4.47;2.80;;;14.60;72.90;;;;;;2357851;53;20974;-70
2021/09/01 04:24:24;;;;;;;4.60;2.75;;;14.60;72.80;;;;;;2364270;52;21038;-70
2021/09/01 04:26:51;;;;;;;4.32;2.67;;;14.60;72.70;;;;;;2354406;53;20982;-68
2021/09/01 04:29:18;;;;;;;5.50;3.00;;;14.60;72.70;;;;;;2337541;53;21015;-69
2021/09/01 04:31:45;;;;;;;6.22;3.03;;;14.60;72.60;;;;;;2532127;52;22087;-71
2021/09/01 04:34:11;;;;;;;4.30;2.67;;;14.60;72.50;;;;;;2344181;53;21010;-69
2021/09/01 04:36:37;;;;;;;4.35;2.72;;;14.60;72.40;;;;;;2353560;53;20971;-70
2021/09/01 04:39:03;;;;;;;5.07;3.12;;;14.60;72.40;;;;;;2362553;52;21451;-74
2021/09/01 04:41:30;;;;;;;4.57;2.95;;;14.60;72.30;;;;;;2362458;52;20952;-72
2021/09/01 04:43:56;;;;;;;4.50;2.83;;;14.60;72.20;;;;;;2352924;53;20999;-70
2021/09/01 04:46:22;;;;;;;6.90;3.03;;;14.60;72.10;;;;;;2357634;53;20992;-67
2021/09/01 04:48:49;;;;;;;4.40;2.95;;;14.60;71.90;;;;;;2522256;52;21096;-71
2021/09/01 04:51:16;;;;;;;5.15;3.17;;;14.60;71.80;;;;;;2358527;52;22085;-71
2021/09/01 04:53:42;;;;;;;4.12;2.70;;;14.50;71.70;;;;;;2358094;52;21006;-74
2021/09/01 04:56:09;;;;;;;4.57;2.83;;;14.50;71.70;;;;;;2588088;52;21021;-70
2021/09/01 04:58:38;;;;;;;5.80;3.28;;;14.50;71.80;;;;;;2357208;53;20946;-69
2021/09/01 05:01:04;;;;;;;7.10;3.50;;;14.50;71.70;;;;;;2357135;53;20938;-70
2021/09/01 05:03:33;;;;;;;5.30;3.78;;;14.50;71.90;;;;;;2413415;52;21073;-75
2021/09/01 05:06:01;;;;;;;5.30;3.42;;;14.50;71.90;;;;;;2321709;53;20946;-71
2021/09/01 05:08:29;;;;;;;3.95;2.58;;;14.40;71.90;;;;;;2347422;53;20959;-74
2021/09/01 05:10:55;;;;;;;6.28;3.53;;;14.40;71.90;;;;;;2445206;52;20999;-67
2021/09/01 05:13:22;;;;;;;4.93;3.60;;;14.40;71.80;;;;;;2355052;52;21040;-72
2021/09/01 05:15:48;;;;;;;5.12;3.33;;;14.40;71.80;;;;;;2362167;52;21049;-67
2021/09/01 05:18:14;;;;;;;5.80;3.40;;;14.40;71.90;;;;;;2357521;52;21131;-72
2021/09/01 05:20:40;;;;;;;5.50;3.30;;;14.40;71.90;;;;;;2363366;52;20946;-67
2021/09/01 05:23:08;;;;;;;5.50;3.17;;;14.40;72.00;;;;;;2358356;53;20977;-68
2021/09/01 05:25:54;;;;;;;4.93;3.50;;;14.40;72.10;;;;;;2399963;52;20945;-70
2021/09/01 05:28:20;;;;;;;5.05;3.12;;;14.40;71.90;;;;;;2487724;52;20934;-69
2021/09/01 05:30:47;;;;;;;4.75;3.10;;;14.30;72.10;;;;;;2382699;52;20974;-68
2021/09/01 05:33:13;;;;;;;4.62;3.10;;;14.30;72.30;;;;;;2357113;53;20957;-72
2021/09/01 05:35:40;;;;;;;5.12;3.53;;;14.20;72.20;;;;;;2366189;52;21006;-70
2021/09/01 05:38:06;;;;;;;5.93;3.25;;;14.30;72.40;;;;;;2347020;53;20925;-70
2021/09/01 05:40:33;;;;;;;5.53;3.12;;;14.30;72.50;;;;;;2358209;53;21077;-67
2021/09/01 05:42:59;;;;;;;4.43;2.80;;;14.30;72.70;;;;;;2362283;53;20920;-69
2021/09/01 05:45:26;;;;;;;5.12;3.20;;;14.30;72.80;;;;;;2366431;52;20943;-70
2021/09/01 05:47:55;;;;;;;5.12;3.22;;;14.40;72.90;;;;;;2453895;52;20969;-72
2021/09/01 05:50:23;;;;;;;4.90;3.03;;;14.40;72.90;;;;;;2362960;53;21050;-70
2021/09/01 05:52:50;;;;;;;4.70;2.80;;;14.40;72.90;;;;;;2362192;52;20953;-70
2021/09/01 05:55:17;;;;;;;4.62;2.65;;;14.40;73.00;;;;;;2362185;53;21545;-72
2021/09/01 05:57:44;;;;;;;4.70;3.20;;;14.40;73.10;;;;;;2427048;53;21434;-73
2021/09/01 06:00:15;;;;;;;6.45;3.33;;;14.50;73.30;;;;;;2367636;52;21095;-70
2021/09/01 06:03:11;;;;;;;4.60;2.97;;;14.50;73.30;;;;;;2359192;53;21020;-69
2021/09/01 06:05:39;;;;;;;4.40;2.95;;;14.50;73.30;;;;;;2376028;52;21081;-71
2021/09/01 06:08:07;;;;;;;5.87;3.85;;;14.50;73.40;;;;;;2582081;52;20971;-71
2021/09/01 06:10:33;;;;;;;4.37;2.80;;;14.60;73.50;;;;;;2400123;52;22001;-73
2021/09/01 06:13:08;;;;;;;7.12;3.08;;;14.60;73.60;;;;;;2559113;52;21010;-71
2021/09/01 06:15:35;;;;;;;14.30;8.88;;;14.60;73.60;;;;;;2358893;53;20921;-70
2021/09/01 06:18:02;;;;;;;13.48;8.07;;;14.70;73.90;;;;;;2610376;52;22000;-73
2021/09/01 06:20:29;;;;;;;11.15;7.57;;;14.70;74.00;;;;;;2358171;53;20942;-69
2021/09/01 06:23:00;;;;;;;8.68;5.70;;;14.70;74.10;;;;;;2362779;53;21025;-69
2021/09/01 06:25:26;;;;;;;7.80;4.53;;;14.80;74.30;;;;;;2357829;53;20945;-71
2021/09/01 06:27:52;;;;;;;6.35;4.12;;;14.80;74.30;;;;;;2362928;52;21804;-72
2021/09/01 06:30:19;;;;;;;6.28;4.20;;;14.90;74.60;;;;;;2357471;53;20962;-70
2021/09/01 06:32:45;;;;;;;5.30;3.55;;;14.90;74.70;;;;;;2357236;53;21009;-72
2021/09/01 06:35:12;;;;;;;6.85;3.83;;;15.00;74.90;;;;;;2409214;52;20943;-69
2021/09/01 06:37:39;;;;;;;7.00;4.25;;;15.10;75.10;;;;;;2360427;52;21446;-70
2021/09/01 06:40:09;;;;;;;6.25;4.20;;;15.20;75.20;;;;;;2608863;52;20950;-69
2021/09/01 06:42:36;;;;;;;6.57;3.97;;;15.20;75.20;;;;;;2356686;52;20969;-71
2021/09/01 06:45:04;;;;;;;8.93;4.47;;;15.30;75.40;;;;;;2361694;53;21601;-70
2021/09/01 06:47:51;;;;;;;8.75;4.80;;;15.40;75.70;;;;;;2358285;52;21910;-74
2021/09/01 06:50:23;;;;;;;9.18;5.30;;;15.50;75.70;;;;;;2462462;52;21029;-72
2021/09/01 06:52:50;;;;;;;;;;;15.60;76.10;;;;;;2365358;52;20986;-69
2021/09/01 06:55:19;;;;;;;6.55;4.35;;;15.70;75.60;;;;;;2411100;52;20186;-70
2021/09/01 06:57:47;;;;;;;8.18;4.55;;;15.70;76.40;;;;;;2338391;53;20957;-69
2021/09/01 07:00:15;;;;;;;8.02;5.50;;;15.80;76.80;;;;;;2358877;53;21061;-70
2021/09/01 07:02:43;;;;;;;7.72;5.15;;;15.90;77.00;;;;;;2387345;52;21008;-74
2021/09/01 07:05:11;;;;;;;8.27;5.65;;;16.00;77.30;;;;;;2567239;52;20942;-70
2021/09/01 07:07:39;;;;;;;11.45;5.28;;;16.20;77.80;;;;;;2414359;52;21899;-69
2021/09/01 07:10:06;;;;;;;9.70;6.07;;;16.30;77.90;;;;;;2352925;53;22034;-71
2021/09/01 07:12:32;;;;;;;11.35;6.37;;;16.40;78.20;;;;;;2462475;52;22042;-71
2021/09/01 07:14:58;;;;;;;9.45;5.93;;;16.60;78.60;;;;;;2345382;53;21505;-69
2021/09/01 07:17:26;;;;;;;10.10;6.18;;;16.70;78.30;;;;;;2358241;53;21073;-69
2021/09/01 07:19:52;;;;;;;8.00;5.37;;;16.80;77.60;;;;;;2371879;52;21061;-70
2021/09/01 07:22:20;;;;;;;7.97;5.15;;;16.90;77.00;;;;;;2418984;52;21983;-69
2021/09/01 07:24:47;;;;;;;8.85;5.37;;;17.00;76.60;;;;;;2359330;53;21048;-69
2021/09/01 07:27:13;;;;;;;8.35;5.70;;;17.10;76.30;;;;;;2359523;53;21016;-70
2021/09/01 07:29:41;;;;;;;7.20;4.70;;;17.10;76.10;;;;;;2610593;52;20973;-74
2021/09/01 07:32:09;;;;;;;8.48;5.20;;;17.20;76.10;;;;;;2366337;52;21081;-73
2021/09/01 07:34:35;;;;;;;7.68;5.07;;;17.20;76.10;;;;;;2353108;52;21068;-71
2021/09/01 07:37:05;;;;;;;9.55;5.37;;;17.20;75.80;;;;;;2359645;52;21022;-73
2021/09/01 07:39:31;;;;;;;8.70;4.90;;;17.30;75.70;;;;;;2360877;53;20997;-69
2021/09/01 07:41:57;;;;;;;8.65;5.05;;;17.30;75.50;;;;;;2358914;52;20965;-70
2021/09/01 07:44:23;;;;;;;7.32;4.72;;;17.30;75.30;;;;;;2424650;52;21886;-67
2021/09/01 07:46:53;;;;;;;8.65;5.25;;;17.40;75.30;;;;;;2359139;53;20981;-70
2021/09/01 07:49:21;;;;;;;9.20;5.32;;;17.40;75.40;;;;;;2523807;52;20979;-71
2021/09/01 07:51:49;;;;;;;7.90;4.80;;;17.40;75.60;;;;;;2347583;53;20958;-70
2021/09/01 07:54:16;;;;;;;7.87;4.80;;;17.40;75.70;;;;;;2363372;52;20977;-70
2021/09/01 07:56:42;;;;;;;6.45;4.32;;;17.40;75.80;;;;;;2358800;53;20942;-72
2021/09/01 07:59:09;;;;;;;7.80;5.15;;;17.50;75.90;;;;;;2359163;53;20950;-68
2021/09/01 08:01:36;;;;;;;8.85;5.32;;;17.50;76.00;;;;;;2353387;53;21516;-70
2021/09/01 08:04:06;;;;;;;8.60;5.60;;;17.60;76.20;;;;;;2362550;53;21460;-69
2021/09/01 08:06:32;;;;;;;7.95;5.25;;;17.70;76.30;;;;;;2363491;52;20922;-70
2021/09/01 08:08:59;;;;;;;7.70;5.60;;;17.80;76.50;;;;;;2471639;52;21001;-72
2021/09/01 08:11:25;;;;;;;8.82;5.55;;;17.80;76.40;;;;;;2467764;52;20991;-71
2021/09/01 08:13:51;;;;;;;12.60;5.72;;;17.80;76.30;;;;;;2351536;52;21050;-70
2021/09/01 08:16:18;;;;;;;7.20;5.20;;;17.90;76.60;;;;;;2361878;53;21020;-69
2021/09/01 08:18:44;;;;;;;8.48;4.90;;;18.00;77.00;;;;;;2350983;53;21967;-70
2021/09/01 08:21:11;;;;;;;7.78;5.75;;;18.10;77.30;;;;;;2444864;52;20969;-70
2021/09/01 08:23:37;;;;;;;7.55;5.68;;;18.20;77.40;;;;;;2366573;53;20960;-71
2021/09/01 08:26:04;;;;;;;7.25;5.05;;;18.30;77.60;;;;;;2357759;53;21041;-70
2021/09/01 08:28:31;;;;;;;8.73;5.30;;;18.40;77.70;;;;;;2359987;53;20985;-71
2021/09/01 08:30:58;;;;;;;9.07;6.05;;;18.50;77.90;;;;;;2448784;52;20998;-71
2021/09/01 08:33:24;;;;;;;9.45;6.60;;;18.60;78.00;;;;;;2357932;53;20989;-71
2021/09/01 08:35:53;;;;;;;7.87;5.65;;;18.70;78.20;;;;;;2376503;52;20954;-71
2021/09/01 08:38:20;;;;;;;9.38;6.15;;;18.80;78.10;;;;;;2357929;53;20950;-72
2021/09/01 08:40:48;;;;;;;8.13;5.75;;;19.00;78.10;;;;;;2361403;52;21042;-69
2021/09/01 08:43:17;;;;;;;10.45;6.78;;;19.10;78.00;;;;;;2348411;53;20989;-71
2021/09/01 08:45:47;;;;;;;11.25;7.43;;;19.20;77.80;;;;;;2360332;52;21460;-69
2021/09/01 08:48:14;;;;;;;12.15;7.55;;;19.30;77.70;;;;;;2356986;53;20957;-74
2021/09/01 08:50:41;;;;;;;10.98;7.12;;;19.40;77.60;;;;;;2521728;52;20977;-70
2021/09/01 08:53:08;;;;;;;10.50;7.62;;;19.50;77.50;;;;;;2361838;52;21018;-71
2021/09/01 08:55:35;;;;;;;11.48;7.20;;;19.60;77.40;;;;;;2391992;52;20981;-70
2021/09/01 08:58:01;;;;;;;12.85;7.03;;;19.70;77.40;;;;;;2346910;53;20938;-71
2021/09/01 09:00:28;;;;;;;11.10;7.53;;;19.80;77.40;;;;;;2359121;53;21018;-70
2021/09/01 09:02:55;;;;;;;9.30;6.25;;;19.90;77.30;;;;;;2358897;53;21041;-73
2021/09/01 09:05:35;;;;;;;10.88;6.75;;;20.00;77.30;;;;;;2608783;52;20993;-76
2021/09/01 09:08:05;;;;;;;8.55;5.57;;;20.10;76.90;;;;;;2357295;53;21009;-73
2021/09/01 09:10:34;;;;;;;8.18;5.80;;;20.20;77.50;;;;;;2361918;52;20970;-71
2021/09/01 09:13:04;;;;;;;8.75;6.30;;;20.30;77.10;;;;;;2343937;53;21962;-71
2021/09/01 09:15:30;;;;;;;8.48;5.97;;;20.40;76.60;;;;;;2361175;53;21084;-71
2021/09/01 09:17:58;;;;;;;7.70;5.85;;;20.50;76.90;;;;;;2478291;52;21557;-71
2021/09/01 09:20:26;;;;;;;7.35;5.30;;;20.60;76.90;;;;;;2342144;52;21651;-72
2021/09/01 09:22:52;;;;;;;9.27;5.57;;;20.70;76.90;;;;;;2355798;53;21012;-71
2021/09/01 09:25:21;;;;;;;8.35;5.40;;;20.80;76.90;;;;;;2358943;53;21009;-74
2021/09/01 09:27:54;;;;;;;8.02;5.47;;;20.90;77.00;;;;;;2362785;52;20942;-74
2021/09/01 09:30:27;;;;;;;7.97;5.12;;;21.00;76.90;;;;;;2445875;52;21486;-70
2021/09/01 09:33:21;;;;;;;7.50;5.30;;;21.10;76.70;;;;;;2354816;53;20982;-71
2021/09/01 09:36:04;;;;;;;7.05;4.90;;;21.20;76.20;;;;;;2341867;52;21056;-69
2021/09/01 09:38:50;;;;;;;7.55;5.00;;;21.40;76.40;;;;;;2362896;52;20946;-70
2021/09/01 09:41:29;;;;;;;7.37;5.25;;;21.50;75.70;;;;;;2358781;53;20957;-73
2021/09/01 09:43:57;;;;;;;7.00;4.55;;;21.60;75.90;;;;;;2357585;52;21002;-73
2021/09/01 09:46:23;;;;;;;7.70;5.05;;;21.70;76.40;;;;;;2358903;53;20954;-72
2021/09/01 09:48:50;;;;;;;6.72;4.80;;;21.80;76.60;;;;;;2363050;52;20963;-75
2021/09/01 09:51:32;;;;;;;9.95;5.30;;;21.90;76.80;;;;;;2448806;52;21013;-72
2021/09/01 09:53:59;;;;;;;8.35;5.10;;;22.10;76.80;;;;;;2358831;53;21045;-72
2021/09/01 09:56:30;;;;;;;7.70;5.37;;;22.20;76.80;;;;;;2360886;52;20997;-75
2021/09/01 09:58:56;;;;;;;6.15;4.35;;;22.30;76.60;;;;;;2363304;52;21494;-72
2021/09/01 10:01:24;;;;;;;6.72;4.85;;;22.40;76.40;;;;;;2362611;53;20982;-73
2021/09/01 10:03:50;;;;;;;7.85;5.50;;;22.50;76.30;;;;;;2358604;53;20973;-72
2021/09/01 10:06:18;;;;;;;7.18;4.82;;;22.70;76.80;;;;;;2342261;53;20993;-74
2021/09/01 10:08:49;;;;;;;6.82;4.70;;;22.90;76.80;;;;;;2363430;52;20915;-74
2021/09/01 10:11:20;;;;;;;8.10;4.47;;;23.00;75.80;;;;;;2339823;53;21352;-72
2021/09/01 10:13:49;;;;;;;6.68;4.80;;;23.20;75.50;;;;;;2362516;53;20969;-72
2021/09/01 10:16:45;;;;;;;6.53;4.22;;;23.30;75.40;;;;;;2362886;53;20966;-72
2021/09/01 10:19:18;;;;;;;6.07;4.12;;;23.40;73.00;;;;;;2358013;53;21948;-72
2021/09/01 10:21:46;;;;;;;6.85;4.43;;;23.50;74.90;;;;;;2343696;53;21349;-71
2021/09/01 10:24:32;;;;;;;6.87;4.65;;;23.60;74.70;;;;;;2444530;52;20988;-71
2021/09/01 10:27:00;;;;;;;6.55;4.22;;;23.60;74.00;;;;;;2548903;52;20966;-77
2021/09/01 10:29:46;;;;;;;6.90;4.45;;;23.70;74.50;;;;;;2351228;53;20955;-76
2021/09/01 10:32:44;;;;;;;5.95;3.92;;;23.80;72.90;;;;;;2463473;52;20962;-73
2021/09/01 10:35:29;;;;;;;6.68;4.47;;;23.90;72.60;;;;;;2358674;52;20949;-72
2021/09/01 10:37:56;;;;;;;6.62;4.07;;;23.90;71.90;;;;;;2362335;53;20949;-72
2021/09/01 10:40:52;;;;;;;7.32;4.75;;;24.00;73.30;;;;;;2357513;53;20922;-72
2021/09/01 10:43:19;;;;;;;7.05;4.82;;;24.00;71.50;;;;;;2343779;53;21003;-69
2021/09/01 10:46:03;;;;;;;7.60;4.75;;;24.10;73.20;;;;;;2357509;53;21004;-71
2021/09/01 10:48:37;;;;;;;7.15;4.80;;;24.20;71.40;;;;;;2483872;52;20950;-70
2021/09/01 10:51:25;;;;;;;7.43;4.70;;;24.20;73.10;;;;;;2363986;53;20975;-72
2021/09/01 10:53:51;;;;;;;6.65;4.57;;;24.20;71.50;;;;;;2340405;52;20973;-76
2021/09/01 10:56:17;;;;;;;6.75;4.50;;;24.30;73.00;;;;;;2361129;53;20986;-72
2021/09/01 10:58:45;;;;;;;7.45;4.65;;;24.30;72.80;;;;;;2430740;52;20953;-75
2021/09/01 11:01:24;;;;;;;5.60;4.15;;;24.40;72.60;;;;;;2364679;52;21507;-71
2021/09/01 11:03:53;;;;;;;5.65;4.07;;;24.50;71.40;;;;;;2349448;52;21011;-72
2021/09/01 11:06:26;;;;;;;6.20;4.18;;;24.50;72.10;;;;;;2356496;53;21092;-72
2021/09/01 11:09:14;;;;;;;6.35;3.47;;;24.50;71.90;;;;;;2336451;53;21018;-77
2021/09/01 11:11:57;;;;;;;5.18;3.78;;;24.60;70.70;;;;;;2343337;53;20957;-72
2021/09/01 11:14:48;;;;;;;5.18;3.10;;;24.60;71.00;;;;;;2340191;53;20982;-74
2021/09/01 11:17:38;;;;;;;6.82;3.90;;;24.70;70.80;;;;;;2356499;53;21545;-72
2021/09/01 11:20:08;;;;;;;6.37;4.10;;;24.80;70.90;;;;;;2443769;52;21830;-72
2021/09/01 11:22:38;;;;;;;5.80;3.60;;;24.90;72.70;;;;;;2542034;52;20978;-72
2021/09/01 11:25:07;;;;;;;5.70;3.47;;;25.00;72.40;;;;;;2366679;53;2270915;-77
2021/09/01 11:27:38;;;;;;;5.15;3.55;;;25.00;72.00;;;;;;2353021;52;20981;-72
2021/09/01 11:30:08;;;;;;;5.95;3.62;;;25.20;72.00;;;;;;2370469;52;22345;-71
2021/09/01 11:32:35;;;;;;;5.80;3.80;;;25.20;71.00;;;;;;2347204;53;20995;-72
2021/09/01 11:35:05;;;;;;;5.65;3.97;;;25.30;71.40;;;;;;2496926;52;21560;-72
2021/09/01 11:37:31;;;;;;;6.15;4.07;;;25.30;71.20;;;;;;2356355;53;21469;-72
2021/09/01 11:40:17;;;;;;;6.30;4.15;;;25.40;71.10;;;;;;2490263;52;21089;-73
2021/09/01 11:42:47;;;;;;;5.20;3.50;;;25.50;69.40;;;;;;2344389;53;21798;-72
2021/09/01 11:45:14;;;;;;;6.12;3.40;;;25.50;70.30;;;;;;2352097;53;21087;-78
2021/09/01 11:47:42;;;;;;;5.65;3.08;;;25.50;70.60;;;;;;2357570;53;21489;-72
2021/09/01 11:50:10;;;;;;;5.65;3.90;;;25.60;70.50;;;;;;2608987;52;21033;-74
2021/09/01 11:52:38;;;;;;;5.22;3.33;;;25.60;70.40;;;;;;2357106;52;21029;-76
2021/09/01 11:55:06;;;;;;;5.87;3.97;;;25.70;70.40;;;;;;2363440;52;20991;-74
2021/09/01 11:57:32;;;;;;;5.65;3.30;;;25.70;70.10;;;;;;2399978;52;21324;-73
2021/09/01 12:00:06;;;;;;;5.28;2.95;;;25.70;69.50;;;;;;2420138;52;20905;-71
2021/09/01 12:02:32;;;;;;;6.72;3.15;;;25.80;68.60;;;;;;2343566;53;21097;-71
2021/09/01 12:04:59;;;;;;;5.00;3.22;;;25.80;69.00;;;;;;2400927;52;21151;-74
2021/09/01 12:07:30;;;;;;;5.55;3.47;;;25.70;69.20;;;;;;2328456;53;21157;-78
2021/09/01 12:10:33;;;;;;;5.15;3.30;;;25.80;68.70;;;;;;2356256;53;22027;-72
2021/09/01 12:16:42;;;;;;;4.12;2.70;;;25.90;68.00;;;;;;2364202;52;20954;-71
2021/09/01 12:19:11;;;;;;;4.50;3.10;;;26.00;70.00;;;;;;2346615;53;20988;-72
2021/09/01 12:21:46;;;;;;;4.43;3.05;;;26.10;69.60;;;;;;2508147;52;21361;-72
2021/09/01 12:24:14;;;;;;;4.62;3.50;;;26.20;68.50;;;;;;2358237;53;21029;-72
2021/09/01 12:26:52;;;;;;;4.85;3.42;;;26.30;69.60;;;;;;2362473;52;20958;-74
2021/09/01 12:30:24;;;;;;;5.18;3.50;;;26.30;68.10;;;;;;2357612;53;20989;-70
2021/09/01 12:32:56;;;;;;;4.80;3.25;;;26.50;67.60;;;;;;2361525;52;20971;-72
2021/09/01 12:35:25;;;;;;;4.35;2.92;;;26.50;68.40;;;;;;2358518;53;20921;-71
2021/09/01 12:37:55;;;;;;;5.65;3.65;;;26.60;68.80;;;;;;2471050;52;21416;-71
2021/09/01 12:40:26;;;;;;;5.45;4.05;;;26.60;68.60;;;;;;2357682;53;21452;-72
2021/09/01 12:42:57;;;;;;;;;;;26.70;67.80;;;;;;2361738;53;21626;-70
2021/09/01 12:45:23;;;;;;;4.32;2.75;;;26.80;68.10;;;;;;2361149;53;20126;-70
2021/09/01 12:48:01;;;;;;;5.50;3.35;;;26.70;68.90;;;;;;2357916;53;21801;-71
2021/09/01 12:50:29;;;;;;;5.00;3.58;;;26.80;67.10;;;;;;2362669;52;21414;-70
2021/09/01 12:52:56;;;;;;;4.87;3.53;;;26.90;67.90;;;;;;2364504;53;20994;-75
2021/09/01 12:55:29;;;;;;;5.18;3.20;;;26.90;67.70;;;;;;2368142;52;21234;-71
2021/09/01 12:57:56;;;;;;;5.30;3.78;;;27.00;67.30;;;;;;2366107;52;21082;-71
2021/09/01 13:00:23;;;;;;;4.97;3.40;;;27.00;67.40;;;;;;2345857;53;20949;-70
2021/09/01 13:02:50;;;;;;;5.32;3.50;;;27.00;66.90;;;;;;2365266;53;20950;-71
2021/09/01 13:05:18;;;;;;;5.68;3.53;;;27.00;66.80;;;;;;2385686;52;22018;-70
2021/09/01 13:07:45;;;;;;;6.55;3.85;;;27.00;66.30;;;;;;2358707;52;20949;-69
2021/09/01 13:10:12;;;;;;;5.35;3.75;;;27.00;66.00;;;;;;2363048;52;20958;-69